Terminal Aerodrome Forecast
Issued by NWS

Home | Current Version | Previous Version | Text Only | Print | Product List | Glossary On
Versions: 1 2 3 4 5 6 7 8 9 10 11 12
418
FTAK31 PAJN 240521
TAFAJN
TAF
PAJN 240521Z 2406/2506 09005KT P6SM FEW050 OVC100
     FM241200 10008KT P6SM VCSH OVC060
     FM241500 10010KT P6SM -RA BKN035 OVC050
     FM250200 10007KT P6SM VCSH BKN035 BKN080=

USA.gov is the U.S. government's official web portal to all federal, state and local government web resources and services.